sensor_id;sensor_type;location;lat;lon;timestamp;temperature;humidity
22838;DHT22;11585;51.450;-0.240;2023-04-16T00:02:18;12.00;99.90
22838;DHT22;11585;51.450;-0.240;2023-04-16T00:08:06;12.00;99.90
22838;DHT22;11585;51.450;-0.240;2023-04-16T00:10:33;12.00;99.90
22838;DHT22;11585;51.450;-0.240;2023-04-16T00:12:59;12.00;99.90
22838;DHT22;11585;51.450;-0.240;2023-04-16T00:15:24;11.90;99.90
22838;DHT22;11585;51.450;-0.240;2023-04-16T00:18:09;12.00;99.90
22838;DHT22;11585;51.450;-0.240;2023-04-16T00:20:35;12.00;99.90
22838;DHT22;11585;51.450;-0.240;2023-04-16T00:23:00;11.90;99.90
22838;DHT22;11585;51.450;-0.240;2023-04-16T00:25:26;11.90;99.90
22838;DHT22;11585;51.450;-0.240;2023-04-16T00:30:55;11.90;99.90
22838;DHT22;11585;51.450;-0.240;2023-04-16T00:33:21;11.90;99.90
22838;DHT22;11585;51.450;-0.240;2023-04-16T00:35:47;11.90;99.90
22838;DHT22;11585;51.450;-0.240;2023-04-16T00:41:16;11.90;99.90
22838;DHT22;11585;51.450;-0.240;2023-04-16T00:43:42;11.90;99.90
22838;DHT22;11585;51.450;-0.240;2023-04-16T00:46:08;11.80;99.90
22838;DHT22;11585;51.450;-0.240;2023-04-16T00:48:35;11.80;99.90
22838;DHT22;11585;51.450;-0.240;2023-04-16T00:51:05;11.70;99.90
22838;DHT22;11585;51.450;-0.240;2023-04-16T00:53:31;11.80;99.90
22838;DHT22;11585;51.450;-0.240;2023-04-16T00:55:57;11.90;99.90
22838;DHT22;11585;51.450;-0.240;2023-04-16T00:58:28;11.80;99.90
22838;DHT22;11585;51.450;-0.240;2023-04-16T01:00:54;11.80;99.90
22838;DHT22;11585;51.450;-0.240;2023-04-16T01:03:21;11.80;99.90
22838;DHT22;11585;51.450;-0.240;2023-04-16T01:05:46;11.70;99.90
22838;DHT22;11585;51.450;-0.240;2023-04-16T01:11:35;11.70;99.90
22838;DHT22;11585;51.450;-0.240;2023-04-16T01:14:02;11.40;99.90
22838;DHT22;11585;51.450;-0.240;2023-04-16T01:16:28;11.70;99.90
22838;DHT22;11585;51.450;-0.240;2023-04-16T01:22:15;11.70;99.90
22838;DHT22;11585;51.450;-0.240;2023-04-16T01:31:25;11.60;99.90
22838;DHT22;11585;51.450;-0.240;2023-04-16T01:37:13;11.60;99.90
22838;DHT22;11585;51.450;-0.240;2023-04-16T01:39:38;11.60;99.90
22838;DHT22;11585;51.450;-0.240;2023-04-16T01:42:04;11.60;99.90
22838;DHT22;11585;51.450;-0.240;2023-04-16T01:44:29;11.60;99.90
22838;DHT22;11585;51.450;-0.240;2023-04-16T01:46:55;11.60;99.90
22838;DHT22;11585;51.450;-0.240;2023-04-16T01:52:43;11.60;99.90
22838;DHT22;11585;51.450;-0.240;2023-04-16T01:55:09;11.60;99.90
22838;DHT22;11585;51.450;-0.240;2023-04-16T02:00:57;11.60;99.90
22838;DHT22;11585;51.450;-0.240;2023-04-16T02:03:23;11.60;99.90
22838;DHT22;11585;51.450;-0.240;2023-04-16T02:05:50;11.60;99.90
22838;DHT22;11585;51.450;-0.240;2023-04-16T02:11:37;11.60;99.90
22838;DHT22;11585;51.450;-0.240;2023-04-16T02:17:07;11.50;99.90
22838;DHT22;11585;51.450;-0.240;2023-04-16T02:19:32;11.50;99.90
22838;DHT22;11585;51.450;-0.240;2023-04-16T02:21:58;11.50;99.90
22838;DHT22;11585;51.450;-0.240;2023-04-16T02:24:26;11.50;99.90
22838;DHT22;11585;51.450;-0.240;2023-04-16T02:26:52;11.50;99.90
22838;DHT22;11585;51.450;-0.240;2023-04-16T02:32:39;11.50;99.90
22838;DHT22;11585;51.450;-0.240;2023-04-16T02:35:05;11.50;99.90
22838;DHT22;11585;51.450;-0.240;2023-04-16T02:37:33;11.40;99.90
22838;DHT22;11585;51.450;-0.240;2023-04-16T02:39:59;11.50;99.90
22838;DHT22;11585;51.450;-0.240;2023-04-16T02:42:24;11.40;99.90
22838;DHT22;11585;51.450;-0.240;2023-04-16T02:44:50;11.40;99.90
22838;DHT22;11585;51.450;-0.240;2023-04-16T02:50:38;11.40;99.90
22838;DHT22;11585;51.450;-0.240;2023-04-16T02:53:03;11.40;99.90
22838;DHT22;11585;51.450;-0.240;2023-04-16T02:55:30;11.40;99.90
22838;DHT22;11585;51.450;-0.240;2023-04-16T02:58:17;11.40;99.90
22838;DHT22;11585;51.450;-0.240;2023-04-16T03:00:46;11.40;99.90
22838;DHT22;11585;51.450;-0.240;2023-04-16T03:03:12;11.30;99.90
22838;DHT22;11585;51.450;-0.240;2023-04-16T03:05:38;11.30;99.90
22838;DHT22;11585;51.450;-0.240;2023-04-16T03:08:24;11.30;99.90
22838;DHT22;11585;51.450;-0.240;2023-04-16T03:10:50;11.30;99.90
22838;DHT22;11585;51.450;-0.240;2023-04-16T03:13:15;11.30;99.90
22838;DHT22;11585;51.450;-0.240;2023-04-16T03:15:47;11.30;99.90
22838;DHT22;11585;51.450;-0.240;2023-04-16T03:21:34;11.30;99.90
22838;DHT22;11585;51.450;-0.240;2023-04-16T03:24:00;11.30;99.90
22838;DHT22;11585;51.450;-0.240;2023-04-16T03:26:29;11.20;99.90
22838;DHT22;11585;51.450;-0.240;2023-04-16T03:28:59;11.20;99.90
22838;DHT22;11585;51.450;-0.240;2023-04-16T03:31:26;11.20;99.90
22838;DHT22;11585;51.450;-0.240;2023-04-16T03:33:52;11.20;99.90
22838;DHT22;11585;51.450;-0.240;2023-04-16T03:36:18;11.20;99.90
22838;DHT22;11585;51.450;-0.240;2023-04-16T03:39:02;11.30;99.90
22838;DHT22;11585;51.450;-0.240;2023-04-16T03:41:28;11.20;99.90
22838;DHT22;11585;51.450;-0.240;2023-04-16T03:43:54;11.20;99.90
22838;DHT22;11585;51.450;-0.240;2023-04-16T03:46:19;11.20;99.90
22838;DHT22;11585;51.450;-0.240;2023-04-16T03:52:07;11.20;99.90
22838;DHT22;11585;51.450;-0.240;2023-04-16T03:54:32;11.20;99.90
22838;DHT22;11585;51.450;-0.240;2023-04-16T03:56:58;11.50;99.90
22838;DHT22;11585;51.450;-0.240;2023-04-16T03:59:24;11.10;99.90
22838;DHT22;11585;51.450;-0.240;2023-04-16T04:01:50;11.30;99.90
22838;DHT22;11585;51.450;-0.240;2023-04-16T04:04:15;11.20;99.90
22838;DHT22;11585;51.450;-0.240;2023-04-16T04:06:41;11.10;99.90
22838;DHT22;11585;51.450;-0.240;2023-04-16T04:12:30;11.20;99.90
22838;DHT22;11585;51.450;-0.240;2023-04-16T04:14:58;11.10;99.90
22838;DHT22;11585;51.450;-0.240;2023-04-16T04:20:46;11.10;99.90
22838;DHT22;11585;51.450;-0.240;2023-04-16T04:23:33;11.10;99.90
22838;DHT22;11585;51.450;-0.240;2023-04-16T04:25:58;11.10;99.90
22838;DHT22;11585;51.450;-0.240;2023-04-16T04:31:33;11.10;99.90
22838;DHT22;11585;51.450;-0.240;2023-04-16T04:33:58;11.20;99.90
22838;DHT22;11585;51.450;-0.240;2023-04-16T04:36:24;11.10;99.90
22838;DHT22;11585;51.450;-0.240;2023-04-16T04:52:06;11.10;99.90
22838;DHT22;11585;51.450;-0.240;2023-04-16T04:57:54;11.10;99.90
22838;DHT22;11585;51.450;-0.240;2023-04-16T05:00:20;11.10;99.90
22838;DHT22;11585;51.450;-0.240;2023-04-16T05:02:45;11.10;99.90
22838;DHT22;11585;51.450;-0.240;2023-04-16T05:05:11;11.10;99.90
22838;DHT22;11585;51.450;-0.240;2023-04-16T05:10:59;11.10;99.90
22838;DHT22;11585;51.450;-0.240;2023-04-16T05:13:25;11.20;99.90
22838;DHT22;11585;51.450;-0.240;2023-04-16T05:15:50;11.10;99.90
22838;DHT22;11585;51.450;-0.240;2023-04-16T05:21:42;11.20;99.90
22838;DHT22;11585;51.450;-0.240;2023-04-16T05:24:08;11.10;99.90
22838;DHT22;11585;51.450;-0.240;2023-04-16T05:26:33;11.10;99.90
22838;DHT22;11585;51.450;-0.240;2023-04-16T05:32:24;11.20;99.90
22838;DHT22;11585;51.450;-0.240;2023-04-16T05:34:49;11.10;99.90
22838;DHT22;11585;51.450;-0.240;2023-04-16T05:40:37;11.10;99.90
22838;DHT22;11585;51.450;-0.240;2023-04-16T05:43:03;11.20;99.90
22838;DHT22;11585;51.450;-0.240;2023-04-16T05:45:29;11.20;99.90
22838;DHT22;11585;51.450;-0.240;2023-04-16T05:51:19;11.10;99.90
22838;DHT22;11585;51.450;-0.240;2023-04-16T05:53:47;11.10;99.90
22838;DHT22;11585;51.450;-0.240;2023-04-16T05:56:12;11.20;99.90
22838;DHT22;11585;51.450;-0.240;2023-04-16T06:02:02;11.20;99.90
22838;DHT22;11585;51.450;-0.240;2023-04-16T06:04:28;11.10;99.90
22838;DHT22;11585;51.450;-0.240;2023-04-16T06:06:55;11.10;99.90
22838;DHT22;11585;51.450;-0.240;2023-04-16T06:12:48;11.20;99.90
22838;DHT22;11585;51.450;-0.240;2023-04-16T06:15:13;11.20;99.90
22838;DHT22;11585;51.450;-0.240;2023-04-16T06:24:06;11.20;99.90
22838;DHT22;11585;51.450;-0.240;2023-04-16T06:26:31;11.20;99.90
22838;DHT22;11585;51.450;-0.240;2023-04-16T06:29:03;11.20;99.90
22838;DHT22;11585;51.450;-0.240;2023-04-16T06:31:29;11.20;99.90
22838;DHT22;11585;51.450;-0.240;2023-04-16T06:33:55;11.20;99.90
22838;DHT22;11585;51.450;-0.240;2023-04-16T06:36:20;11.10;99.90
22838;DHT22;11585;51.450;-0.240;2023-04-16T06:42:08;11.20;99.90
22838;DHT22;11585;51.450;-0.240;2023-04-16T06:44:34;11.20;99.90
22838;DHT22;11585;51.450;-0.240;2023-04-16T06:50:22;11.30;99.90
22838;DHT22;11585;51.450;-0.240;2023-04-16T06:52:47;11.30;99.90
22838;DHT22;11585;51.450;-0.240;2023-04-16T06:55:13;11.30;99.90
22838;DHT22;11585;51.450;-0.240;2023-04-16T06:57:39;11.40;99.90
22838;DHT22;11585;51.450;-0.240;2023-04-16T07:00:05;11.30;99.90
22838;DHT22;11585;51.450;-0.240;2023-04-16T07:02:31;11.30;99.90
22838;DHT22;11585;51.450;-0.240;2023-04-16T07:04:57;11.30;99.90
22838;DHT22;11585;51.450;-0.240;2023-04-16T07:10:44;11.40;99.90
22838;DHT22;11585;51.450;-0.240;2023-04-16T07:16:32;11.40;99.90
22838;DHT22;11585;51.450;-0.240;2023-04-16T07:18:59;11.40;99.90
22838;DHT22;11585;51.450;-0.240;2023-04-16T07:21:24;11.40;99.90
22838;DHT22;11585;51.450;-0.240;2023-04-16T07:23:50;11.40;99.90
22838;DHT22;11585;51.450;-0.240;2023-04-16T07:26:16;11.40;99.90
22838;DHT22;11585;51.450;-0.240;2023-04-16T07:31:29;11.50;99.90
22838;DHT22;11585;51.450;-0.240;2023-04-16T07:33:55;11.50;99.90
22838;DHT22;11585;51.450;-0.240;2023-04-16T07:36:22;11.50;99.90
22838;DHT22;11585;51.450;-0.240;2023-04-16T07:42:09;11.50;99.90
22838;DHT22;11585;51.450;-0.240;2023-04-16T07:44:38;11.50;99.90
22838;DHT22;11585;51.450;-0.240;2023-04-16T07:50:35;11.60;99.90
22838;DHT22;11585;51.450;-0.240;2023-04-16T07:56:22;11.60;99.90
22838;DHT22;11585;51.450;-0.240;2023-04-16T08:01:54;11.60;99.90
22838;DHT22;11585;51.450;-0.240;2023-04-16T08:04:19;11.70;99.90
22838;DHT22;11585;51.450;-0.240;2023-04-16T08:06:52;11.70;99.90
22838;DHT22;11585;51.450;-0.240;2023-04-16T08:12:39;11.80;99.90
22838;DHT22;11585;51.450;-0.240;2023-04-16T08:15:05;11.80;99.90
22838;DHT22;11585;51.450;-0.240;2023-04-16T08:17:51;11.70;99.90
22838;DHT22;11585;51.450;-0.240;2023-04-16T08:20:17;11.80;99.90
22838;DHT22;11585;51.450;-0.240;2023-04-16T08:22:44;11.80;99.90
22838;DHT22;11585;51.450;-0.240;2023-04-16T08:25:10;11.80;99.90
22838;DHT22;11585;51.450;-0.240;2023-04-16T08:27:36;11.80;99.90
22838;DHT22;11585;51.450;-0.240;2023-04-16T08:30:03;11.90;99.90
22838;DHT22;11585;51.450;-0.240;2023-04-16T08:32:28;11.90;99.90
22838;DHT22;11585;51.450;-0.240;2023-04-16T08:34:54;11.90;99.90
22838;DHT22;11585;51.450;-0.240;2023-04-16T08:37:39;11.50;99.90
22838;DHT22;11585;51.450;-0.240;2023-04-16T08:40:05;12.00;99.90
22838;DHT22;11585;51.450;-0.240;2023-04-16T08:42:43;12.00;99.90
22838;DHT22;11585;51.450;-0.240;2023-04-16T08:45:14;12.00;99.90
22838;DHT22;11585;51.450;-0.240;2023-04-16T08:51:05;12.10;99.90
22838;DHT22;11585;51.450;-0.240;2023-04-16T08:53:42;12.10;99.90
22838;DHT22;11585;51.450;-0.240;2023-04-16T08:56:13;12.10;99.90
22838;DHT22;11585;51.450;-0.240;2023-04-16T09:01:43;12.20;99.90
22838;DHT22;11585;51.450;-0.240;2023-04-16T09:04:12;12.30;99.90
22838;DHT22;11585;51.450;-0.240;2023-04-16T09:06:39;12.30;99.90
22838;DHT22;11585;51.450;-0.240;2023-04-16T09:09:07;12.30;99.90
22838;DHT22;11585;51.450;-0.240;2023-04-16T09:11:33;12.40;99.90
22838;DHT22;11585;51.450;-0.240;2023-04-16T09:14:00;12.30;99.90
22838;DHT22;11585;51.450;-0.240;2023-04-16T09:16:26;12.40;99.90
22838;DHT22;11585;51.450;-0.240;2023-04-16T09:21:59;12.50;99.90
22838;DHT22;11585;51.450;-0.240;2023-04-16T09:24:25;12.50;99.90
22838;DHT22;11585;51.450;-0.240;2023-04-16T09:26:53;12.50;99.90
22838;DHT22;11585;51.450;-0.240;2023-04-16T09:32:41;12.60;99.90
22838;DHT22;11585;51.450;-0.240;2023-04-16T09:35:08;12.60;99.90
22838;DHT22;11585;51.450;-0.240;2023-04-16T09:37:57;12.70;99.90
22838;DHT22;11585;51.450;-0.240;2023-04-16T09:40:24;12.70;99.90
22838;DHT22;11585;51.450;-0.240;2023-04-16T09:42:51;12.70;99.90
22838;DHT22;11585;51.450;-0.240;2023-04-16T09:45:16;12.80;99.90
22838;DHT22;11585;51.450;-0.240;2023-04-16T09:51:05;12.90;99.90
22838;DHT22;11585;51.450;-0.240;2023-04-16T09:53:31;12.90;99.90
22838;DHT22;11585;51.450;-0.240;2023-04-16T09:56:05;12.90;99.90
22838;DHT22;11585;51.450;-0.240;2023-04-16T10:01:59;13.00;99.90
22838;DHT22;11585;51.450;-0.240;2023-04-16T10:04:26;13.00;99.90
22838;DHT22;11585;51.450;-0.240;2023-04-16T10:07:02;13.00;99.90
22838;DHT22;11585;51.450;-0.240;2023-04-16T10:09:36;13.20;99.90
22838;DHT22;11585;51.450;-0.240;2023-04-16T10:12:02;13.10;99.90
22838;DHT22;11585;51.450;-0.240;2023-04-16T10:14:28;13.10;99.90
22838;DHT22;11585;51.450;-0.240;2023-04-16T10:16:54;13.20;99.90
22838;DHT22;11585;51.450;-0.240;2023-04-16T10:19:41;13.20;99.90
22838;DHT22;11585;51.450;-0.240;2023-04-16T10:22:08;13.20;99.90
22838;DHT22;11585;51.450;-0.240;2023-04-16T10:24:33;13.20;99.90
22838;DHT22;11585;51.450;-0.240;2023-04-16T10:27:00;13.30;99.90
22838;DHT22;11585;51.450;-0.240;2023-04-16T10:29:27;13.30;99.90
22838;DHT22;11585;51.450;-0.240;2023-04-16T10:31:54;13.30;99.90
22838;DHT22;11585;51.450;-0.240;2023-04-16T10:34:21;13.40;99.90
22838;DHT22;11585;51.450;-0.240;2023-04-16T10:36:49;13.50;99.90
22838;DHT22;11585;51.450;-0.240;2023-04-16T10:39:19;13.40;99.90
22838;DHT22;11585;51.450;-0.240;2023-04-16T10:41:44;13.40;99.90
22838;DHT22;11585;51.450;-0.240;2023-04-16T10:44:11;13.50;99.90
22838;DHT22;11585;51.450;-0.240;2023-04-16T10:46:41;13.50;99.90
22838;DHT22;11585;51.450;-0.240;2023-04-16T10:52:15;13.60;99.90
22838;DHT22;11585;51.450;-0.240;2023-04-16T11:01:33;13.70;99.90
22838;DHT22;11585;51.450;-0.240;2023-04-16T11:04:00;13.80;99.90
22838;DHT22;11585;51.450;-0.240;2023-04-16T11:06:27;13.80;99.90
22838;DHT22;11585;51.450;-0.240;2023-04-16T11:08:53;13.80;99.90
22838;DHT22;11585;51.450;-0.240;2023-04-16T11:11:19;13.80;99.90
22838;DHT22;11585;51.450;-0.240;2023-04-16T11:13:45;13.90;99.90
22838;DHT22;11585;51.450;-0.240;2023-04-16T11:16:15;14.00;99.90
22838;DHT22;11585;51.450;-0.240;2023-04-16T11:21:45;14.00;99.90
22838;DHT22;11585;51.450;-0.240;2023-04-16T11:24:11;14.10;99.90
22838;DHT22;11585;51.450;-0.240;2023-04-16T11:26:36;14.10;99.90
22838;DHT22;11585;51.450;-0.240;2023-04-16T11:29:12;14.10;99.90
22838;DHT22;11585;51.450;-0.240;2023-04-16T11:31:39;14.10;99.90
22838;DHT22;11585;51.450;-0.240;2023-04-16T11:34:06;14.20;99.90
22838;DHT22;11585;51.450;-0.240;2023-04-16T11:36:43;14.20;99.90
22838;DHT22;11585;51.450;-0.240;2023-04-16T11:39:11;14.20;99.90
22838;DHT22;11585;51.450;-0.240;2023-04-16T11:41:43;14.30;99.90
22838;DHT22;11585;51.450;-0.240;2023-04-16T11:44:24;14.20;99.90
22838;DHT22;11585;51.450;-0.240;2023-04-16T11:46:50;14.30;99.90
22838;DHT22;11585;51.450;-0.240;2023-04-16T11:53:03;14.30;99.90
22838;DHT22;11585;51.450;-0.240;2023-04-16T11:55:29;14.40;99.90
22838;DHT22;11585;51.450;-0.240;2023-04-16T12:01:19;14.40;99.90
22838;DHT22;11585;51.450;-0.240;2023-04-16T12:03:45;14.40;99.90
22838;DHT22;11585;51.450;-0.240;2023-04-16T12:06:13;14.40;99.90
22838;DHT22;11585;51.450;-0.240;2023-04-16T12:08:45;14.50;99.90
22838;DHT22;11585;51.450;-0.240;2023-04-16T12:11:10;14.50;99.90
22838;DHT22;11585;51.450;-0.240;2023-04-16T12:13:36;14.50;99.90
22838;DHT22;11585;51.450;-0.240;2023-04-16T12:16:15;14.50;99.90
22838;DHT22;11585;51.450;-0.240;2023-04-16T12:19:04;14.60;99.90
22838;DHT22;11585;51.450;-0.240;2023-04-16T12:21:43;14.60;99.90
22838;DHT22;11585;51.450;-0.240;2023-04-16T12:24:11;14.60;99.90
22838;DHT22;11585;51.450;-0.240;2023-04-16T12:32:21;14.60;99.90
22838;DHT22;11585;51.450;-0.240;2023-04-16T12:34:50;14.70;99.90
22838;DHT22;11585;51.450;-0.240;2023-04-16T12:40:38;14.70;99.90
22838;DHT22;11585;51.450;-0.240;2023-04-16T12:43:03;14.70;99.90
22838;DHT22;11585;51.450;-0.240;2023-04-16T12:45:29;14.70;99.90
22838;DHT22;11585;51.450;-0.240;2023-04-16T12:48:14;14.70;99.90
22838;DHT22;11585;51.450;-0.240;2023-04-16T12:50:39;14.80;99.90
22838;DHT22;11585;51.450;-0.240;2023-04-16T12:53:08;14.80;99.90
22838;DHT22;11585;51.450;-0.240;2023-04-16T12:55:34;14.80;99.90
22838;DHT22;11585;51.450;-0.240;2023-04-16T12:58:00;14.80;99.90
22838;DHT22;11585;51.450;-0.240;2023-04-16T13:00:25;14.80;99.90
22838;DHT22;11585;51.450;-0.240;2023-04-16T13:02:51;14.80;99.90
22838;DHT22;11585;51.450;-0.240;2023-04-16T13:05:17;14.90;99.90
22838;DHT22;11585;51.450;-0.240;2023-04-16T13:08:03;14.90;99.90
22838;DHT22;11585;51.450;-0.240;2023-04-16T13:10:29;14.90;99.90
22838;DHT22;11585;51.450;-0.240;2023-04-16T13:12:54;15.00;99.90
22838;DHT22;11585;51.450;-0.240;2023-04-16T13:15:20;14.90;99.90
22838;DHT22;11585;51.450;-0.240;2023-04-16T13:21:08;14.90;99.90
22838;DHT22;11585;51.450;-0.240;2023-04-16T13:23:34;15.00;99.90
22838;DHT22;11585;51.450;-0.240;2023-04-16T13:25:59;15.00;99.90
22838;DHT22;11585;51.450;-0.240;2023-04-16T13:28:46;15.00;99.90
22838;DHT22;11585;51.450;-0.240;2023-04-16T13:31:13;15.00;99.90
22838;DHT22;11585;51.450;-0.240;2023-04-16T13:33:40;15.00;99.90
22838;DHT22;11585;51.450;-0.240;2023-04-16T13:36:06;15.00;99.90
22838;DHT22;11585;51.450;-0.240;2023-04-16T13:41:53;15.00;99.90
22838;DHT22;11585;51.450;-0.240;2023-04-16T13:44:19;15.00;99.90
22838;DHT22;11585;51.450;-0.240;2023-04-16T13:46:44;15.00;99.90
22838;DHT22;11585;51.450;-0.240;2023-04-16T13:49:16;15.00;99.90
22838;DHT22;11585;51.450;-0.240;2023-04-16T13:51:42;15.00;99.90
22838;DHT22;11585;51.450;-0.240;2023-04-16T13:54:09;15.00;99.90
22838;DHT22;11585;51.450;-0.240;2023-04-16T13:56:34;15.00;99.90
22838;DHT22;11585;51.450;-0.240;2023-04-16T14:02:22;15.00;99.90
22838;DHT22;11585;51.450;-0.240;2023-04-16T14:04:50;15.00;99.90
22838;DHT22;11585;51.450;-0.240;2023-04-16T14:10:37;15.00;99.90
22838;DHT22;11585;51.450;-0.240;2023-04-16T14:13:03;15.00;99.90
22838;DHT22;11585;51.450;-0.240;2023-04-16T14:15:29;15.00;99.90
22838;DHT22;11585;51.450;-0.240;2023-04-16T14:21:16;15.10;99.90
22838;DHT22;11585;51.450;-0.240;2023-04-16T14:23:42;15.10;99.90
22838;DHT22;11585;51.450;-0.240;2023-04-16T14:26:08;15.10;99.90
22838;DHT22;11585;51.450;-0.240;2023-04-16T14:29:04;15.10;99.90
22838;DHT22;11585;51.450;-0.240;2023-04-16T14:31:30;15.10;99.90
22838;DHT22;11585;51.450;-0.240;2023-04-16T14:33:56;15.10;99.90
22838;DHT22;11585;51.450;-0.240;2023-04-16T14:36:22;15.10;99.90
22838;DHT22;11585;51.450;-0.240;2023-04-16T14:41:55;15.10;99.90
22838;DHT22;11585;51.450;-0.240;2023-04-16T14:44:21;15.10;99.90
22838;DHT22;11585;51.450;-0.240;2023-04-16T14:46:47;15.20;99.90
22838;DHT22;11585;51.450;-0.240;2023-04-16T14:55:37;15.10;99.90
22838;DHT22;11585;51.450;-0.240;2023-04-16T14:58:05;15.10;99.90
22838;DHT22;11585;51.450;-0.240;2023-04-16T15:00:33;15.10;99.90
22838;DHT22;11585;51.450;-0.240;2023-04-16T15:03:01;15.10;99.90
22838;DHT22;11585;51.450;-0.240;2023-04-16T15:05:28;15.20;99.90
22838;DHT22;11585;51.450;-0.240;2023-04-16T15:11:16;15.20;99.90
22838;DHT22;11585;51.450;-0.240;2023-04-16T15:13:42;15.20;99.90
22838;DHT22;11585;51.450;-0.240;2023-04-16T15:16:07;15.20;99.90
22838;DHT22;11585;51.450;-0.240;2023-04-16T15:18:38;15.20;99.90
22838;DHT22;11585;51.450;-0.240;2023-04-16T15:21:04;15.20;99.90
22838;DHT22;11585;51.450;-0.240;2023-04-16T15:23:29;15.20;99.90
22838;DHT22;11585;51.450;-0.240;2023-04-16T15:25:55;15.20;99.90
22838;DHT22;11585;51.450;-0.240;2023-04-16T15:28:41;15.20;99.90
22838;DHT22;11585;51.450;-0.240;2023-04-16T15:31:07;15.30;99.90
22838;DHT22;11585;51.450;-0.240;2023-04-16T15:33:33;15.30;99.90
22838;DHT22;11585;51.450;-0.240;2023-04-16T15:35:58;15.30;99.90
22838;DHT22;11585;51.450;-0.240;2023-04-16T15:38:24;15.30;99.90
22838;DHT22;11585;51.450;-0.240;2023-04-16T15:40:50;15.30;99.90
22838;DHT22;11585;51.450;-0.240;2023-04-16T15:43:16;15.20;99.90
22838;DHT22;11585;51.450;-0.240;2023-04-16T15:45:42;15.30;99.90
22838;DHT22;11585;51.450;-0.240;2023-04-16T15:50:55;15.30;99.90
22838;DHT22;11585;51.450;-0.240;2023-04-16T15:53:27;15.30;99.90
22838;DHT22;11585;51.450;-0.240;2023-04-16T15:55:52;15.30;99.90
22838;DHT22;11585;51.450;-0.240;2023-04-16T16:01:40;15.30;99.90
22838;DHT22;11585;51.450;-0.240;2023-04-16T16:04:06;15.30;99.90
22838;DHT22;11585;51.450;-0.240;2023-04-16T16:06:32;15.30;99.90
22838;DHT22;11585;51.450;-0.240;2023-04-16T16:11:54;15.30;99.90
22838;DHT22;11585;51.450;-0.240;2023-04-16T16:14:20;15.30;99.90
22838;DHT22;11585;51.450;-0.240;2023-04-16T16:16:46;15.30;99.90
22838;DHT22;11585;51.450;-0.240;2023-04-16T16:19:34;15.30;99.90
22838;DHT22;11585;51.450;-0.240;2023-04-16T16:21:59;15.30;99.90
22838;DHT22;11585;51.450;-0.240;2023-04-16T16:24:25;15.30;99.90
22838;DHT22;11585;51.450;-0.240;2023-04-16T16:26:51;15.30;99.90
22838;DHT22;11585;51.450;-0.240;2023-04-16T16:32:39;15.30;99.90
22838;DHT22;11585;51.450;-0.240;2023-04-16T16:35:13;15.30;99.90
22838;DHT22;11585;51.450;-0.240;2023-04-16T16:38:01;15.30;99.90
22838;DHT22;11585;51.450;-0.240;2023-04-16T16:40:29;15.30;99.90
22838;DHT22;11585;51.450;-0.240;2023-04-16T16:42:55;15.30;99.90
22838;DHT22;11585;51.450;-0.240;2023-04-16T16:45:21;15.30;99.90
22838;DHT22;11585;51.450;-0.240;2023-04-16T16:51:17;15.30;99.90
22838;DHT22;11585;51.450;-0.240;2023-04-16T16:57:05;15.30;99.90
22838;DHT22;11585;51.450;-0.240;2023-04-16T16:59:31;15.30;99.90
22838;DHT22;11585;51.450;-0.240;2023-04-16T17:01:59;15.30;99.90
22838;DHT22;11585;51.450;-0.240;2023-04-16T17:04:32;15.30;99.90
22838;DHT22;11585;51.450;-0.240;2023-04-16T17:06:58;15.30;99.90
22838;DHT22;11585;51.450;-0.240;2023-04-16T17:09:24;15.30;99.90
22838;DHT22;11585;51.450;-0.240;2023-04-16T17:11:49;15.30;99.90
22838;DHT22;11585;51.450;-0.240;2023-04-16T17:14:15;15.30;99.90
22838;DHT22;11585;51.450;-0.240;2023-04-16T17:16:43;15.30;99.90
22838;DHT22;11585;51.450;-0.240;2023-04-16T17:22:33;15.40;99.90
22838;DHT22;11585;51.450;-0.240;2023-04-16T17:25:02;15.30;99.90
22838;DHT22;11585;51.450;-0.240;2023-04-16T17:27:50;15.40;99.90
22838;DHT22;11585;51.450;-0.240;2023-04-16T17:30:16;15.40;99.90
22838;DHT22;11585;51.450;-0.240;2023-04-16T17:32:42;15.40;99.90
22838;DHT22;11585;51.450;-0.240;2023-04-16T17:35:08;15.40;99.90
22838;DHT22;11585;51.450;-0.240;2023-04-16T17:40:57;15.40;99.90
22838;DHT22;11585;51.450;-0.240;2023-04-16T17:43:22;15.40;99.90
22838;DHT22;11585;51.450;-0.240;2023-04-16T17:45:48;15.40;99.90
22838;DHT22;11585;51.450;-0.240;2023-04-16T17:48:17;15.40;99.90
22838;DHT22;11585;51.450;-0.240;2023-04-16T17:50:43;15.40;99.90
22838;DHT22;11585;51.450;-0.240;2023-04-16T17:53:08;15.40;99.90
22838;DHT22;11585;51.450;-0.240;2023-04-16T17:55:34;15.40;99.90
22838;DHT22;11585;51.450;-0.240;2023-04-16T18:01:04;15.10;99.90
22838;DHT22;11585;51.450;-0.240;2023-04-16T18:03:31;15.40;99.90
22838;DHT22;11585;51.450;-0.240;2023-04-16T18:05:57;15.40;99.90
22838;DHT22;11585;51.450;-0.240;2023-04-16T18:08:25;15.40;99.90
22838;DHT22;11585;51.450;-0.240;2023-04-16T18:10:51;15.40;99.90
22838;DHT22;11585;51.450;-0.240;2023-04-16T18:13:17;15.40;99.90
22838;DHT22;11585;51.450;-0.240;2023-04-16T18:15:42;15.40;99.90
22838;DHT22;11585;51.450;-0.240;2023-04-16T18:21:30;15.40;99.90
22838;DHT22;11585;51.450;-0.240;2023-04-16T18:23:56;15.40;99.90
22838;DHT22;11585;51.450;-0.240;2023-04-16T18:26:22;15.40;99.90
22838;DHT22;11585;51.450;-0.240;2023-04-16T18:28:47;15.40;99.90
22838;DHT22;11585;51.450;-0.240;2023-04-16T18:31:13;15.40;99.90
22838;DHT22;11585;51.450;-0.240;2023-04-16T18:33:38;15.40;99.90
22838;DHT22;11585;51.450;-0.240;2023-04-16T18:36:04;15.30;99.90
22838;DHT22;11585;51.450;-0.240;2023-04-16T18:41:52;15.30;99.90
22838;DHT22;11585;51.450;-0.240;2023-04-16T18:44:18;15.30;99.90
22838;DHT22;11585;51.450;-0.240;2023-04-16T18:46:44;15.20;99.90
22838;DHT22;11585;51.450;-0.240;2023-04-16T18:52:32;15.20;99.90
22838;DHT22;11585;51.450;-0.240;2023-04-16T18:54:58;15.20;99.90
22838;DHT22;11585;51.450;-0.240;2023-04-16T19:00:12;15.20;99.90
22838;DHT22;11585;51.450;-0.240;2023-04-16T19:02:38;15.10;99.90
22838;DHT22;11585;51.450;-0.240;2023-04-16T19:05:05;15.10;99.90
22838;DHT22;11585;51.450;-0.240;2023-04-16T19:07:32;15.10;99.90
22838;DHT22;11585;51.450;-0.240;2023-04-16T19:09:57;15.10;99.90
22838;DHT22;11585;51.450;-0.240;2023-04-16T19:12:24;15.10;99.90
22838;DHT22;11585;51.450;-0.240;2023-04-16T19:14:49;15.10;99.90
22838;DHT22;11585;51.450;-0.240;2023-04-16T19:20:37;15.10;99.90
22838;DHT22;11585;51.450;-0.240;2023-04-16T19:23:04;15.00;99.90
22838;DHT22;11585;51.450;-0.240;2023-04-16T19:25:34;15.00;99.90
22838;DHT22;11585;51.450;-0.240;2023-04-16T19:31:21;15.30;99.90
22838;DHT22;11585;51.450;-0.240;2023-04-16T19:33:47;14.90;99.90
22838;DHT22;11585;51.450;-0.240;2023-04-16T19:36:12;15.00;99.90
22838;DHT22;11585;51.450;-0.240;2023-04-16T19:38:40;14.90;99.90
22838;DHT22;11585;51.450;-0.240;2023-04-16T19:41:06;14.90;99.90
22838;DHT22;11585;51.450;-0.240;2023-04-16T19:43:31;14.90;99.90
22838;DHT22;11585;51.450;-0.240;2023-04-16T19:45:57;14.90;99.90
22838;DHT22;11585;51.450;-0.240;2023-04-16T19:48:23;14.90;99.90